Time;durP1;ratioP1;P1;durP2;ratioP2;P2;SDS_P1;SDS_P2;PMS_P1;PMS_P2;Temp;Humidity;BMP_temperature;BMP_pressure;BME280_temperature;BME280_humidity;BME280_pressure;Samples;Min_cycle;Max_cycle;Signal;HPM_P1;HPM_P2
2021/11/25 00:00:59;;;;;;;;;;;20.80;62.90;;;;;;4956699;28;1276;-70
2021/11/25 00:03:24;;;;;;;;;;;20.70;62.80;;;;;;4956522;29;1899;-71
2021/11/25 00:05:50;;;;;;;;;;;20.70;62.90;;;;;;4956547;29;1081;-71
2021/11/25 00:08:17;;;;;;;;;;;20.70;62.90;;;;;;4956489;29;1289;-71
2021/11/25 00:10:43;;;;;;;;;;;20.70;62.90;;;;;;4956736;29;1347;-71
2021/11/25 00:13:08;;;;;;;;;;;20.70;63.00;;;;;;4939406;29;1134;-71
2021/11/25 00:15:34;;;;;;;;;;;20.70;63.00;;;;;;4956904;28;1086;-70
2021/11/25 00:17:59;;;;;;;;;;;20.70;63.00;;;;;;4958033;29;1266;-71
2021/11/25 00:20:25;;;;;;;;;;;20.70;63.00;;;;;;4960646;28;1699;-70
2021/11/25 00:22:50;;;;;;;;;;;20.70;63.10;;;;;;4956466;28;1242;-70
2021/11/25 00:25:16;;;;;;;;;;;20.70;63.10;;;;;;4955887;29;1972;-70
2021/11/25 00:27:42;;;;;;;;;;;20.70;63.10;;;;;;4955073;28;1288;-71
2021/11/25 00:30:07;;;;;;;;;;;20.70;63.10;;;;;;4953130;29;1247;-69
2021/11/25 00:32:33;;;;;;;;;;;20.70;63.20;;;;;;4955382;29;1183;-70
2021/11/25 00:34:58;;;;;;;;;;;20.60;63.10;;;;;;4955888;29;1328;-69
2021/11/25 00:37:24;;;;;;;;;;;20.70;63.20;;;;;;4954523;29;1298;-69
2021/11/25 00:39:49;;;;;;;;;;;20.70;63.20;;;;;;4949606;28;1244;-70
2021/11/25 00:42:15;;;;;;;;;;;20.60;63.20;;;;;;4949053;29;1200;-70
2021/11/25 00:44:40;;;;;;;;;;;20.70;63.30;;;;;;4955968;29;1981;-70
2021/11/25 00:47:06;;;;;;;;;;;20.60;63.30;;;;;;4956566;29;1371;-70
2021/11/25 00:49:31;;;;;;;;;;;20.60;63.30;;;;;;4955646;29;1321;-70
2021/11/25 00:51:57;;;;;;;;;;;20.60;63.30;;;;;;4955712;29;1267;-70
2021/11/25 00:54:22;;;;;;;;;;;20.60;63.30;;;;;;4955841;29;1386;-70
2021/11/25 00:56:48;;;;;;;;;;;20.60;63.40;;;;;;4956262;29;1304;-70
2021/11/25 00:59:13;;;;;;;;;;;20.60;63.40;;;;;;4955759;29;1330;-70
2021/11/25 01:01:39;;;;;;;;;;;20.60;63.40;;;;;;4955970;29;1281;-70
2021/11/25 01:04:05;;;;;;;;;;;20.60;63.40;;;;;;4955570;29;1903;-70
2021/11/25 01:06:30;;;;;;;;;;;20.60;63.40;;;;;;4955739;29;1280;-70
2021/11/25 01:08:55;;;;;;;;;;;20.60;63.50;;;;;;4957513;29;1310;-71
2021/11/25 01:11:22;;;;;;;;;;;20.50;63.40;;;;;;4954973;28;1323;-70
2021/11/25 01:13:47;;;;;;;;;;;20.60;64.30;;;;;;4955528;29;1414;-70
2021/11/25 01:16:13;;;;;;;;;;;20.60;63.50;;;;;;4955628;28;1416;-70
2021/11/25 01:18:38;;;;;;;;;;;20.50;63.50;;;;;;4955124;29;1328;-70
2021/11/25 01:21:04;;;;;;;;;;;20.50;63.50;;;;;;4964994;28;1073;-69
2021/11/25 01:23:30;;;;;;;;;;;20.50;63.60;;;;;;4957588;28;1899;-70
2021/11/25 01:25:56;;;;;;;;;;;20.50;63.60;;;;;;4938363;29;1326;-70
2021/11/25 01:28:22;;;;;;;;;;;20.50;63.60;;;;;;4956542;28;1638;-70
2021/11/25 01:30:48;;;;;;;;;;;20.50;63.60;;;;;;4955144;29;1263;-70
2021/11/25 01:33:13;;;;;;;;;;;20.50;63.60;;;;;;4954999;29;1344;-70
2021/11/25 01:35:39;;;;;;;;;;;20.50;63.70;;;;;;4955274;29;1267;-70
2021/11/25 01:38:06;;;;;;;;;;;20.50;63.60;;;;;;4954946;29;1403;-70
2021/11/25 01:40:31;;;;;;;;;;;20.50;63.70;;;;;;4955463;29;1191;-70
2021/11/25 01:42:57;;;;;;;;;;;20.50;63.70;;;;;;4954857;29;1192;-70
2021/11/25 01:45:25;;;;;;;;;;;20.50;63.70;;;;;;4955063;29;1966;-70
2021/11/25 01:47:50;;;;;;;;;;;20.50;63.70;;;;;;4937511;29;1327;-70
2021/11/25 01:50:16;;;;;;;;;;;20.50;63.80;;;;;;4954348;28;1351;-70
2021/11/25 01:52:41;;;;;;;;;;;20.50;63.80;;;;;;4937128;29;1466;-69
2021/11/25 01:55:07;;;;;;;;;;;20.50;63.80;;;;;;4955056;28;1355;-70
2021/11/25 01:57:33;;;;;;;;;;;20.40;63.80;;;;;;4954742;29;1335;-70
2021/11/25 01:59:58;;;;;;;;;;;20.50;63.80;;;;;;4954924;29;1313;-70
2021/11/25 02:02:23;;;;;;;;;;;20.40;63.80;;;;;;4954307;29;1288;-70
2021/11/25 02:04:49;;;;;;;;;;;20.40;63.80;;;;;;4954746;29;1962;-70
2021/11/25 02:07:14;;;;;;;;;;;20.40;63.80;;;;;;4954987;29;1304;-70
2021/11/25 02:09:40;;;;;;;;;;;20.40;63.80;;;;;;4955044;29;1274;-70
2021/11/25 02:12:06;;;;;;;;;;;20.40;63.90;;;;;;4954510;28;1385;-70
2021/11/25 02:14:31;;;;;;;;;;;20.40;63.90;;;;;;4954789;28;1304;-70
2021/11/25 02:16:57;;;;;;;;;;;20.40;63.90;;;;;;4954715;29;1291;-70
2021/11/25 02:19:22;;;;;;;;;;;20.40;63.90;;;;;;4954627;28;1326;-70
2021/11/25 02:21:48;;;;;;;;;;;20.40;63.90;;;;;;4947929;29;1312;-70
2021/11/25 02:24:14;;;;;;;;;;;20.40;63.90;;;;;;4953317;29;1906;-70
2021/11/25 02:26:40;;;;;;;;;;;20.40;64.00;;;;;;4953486;28;1364;-70
2021/11/25 02:29:05;;;;;;;;;;;20.40;64.00;;;;;;4954463;29;1284;-70
2021/11/25 02:31:31;;;;;;;;;;;20.40;64.00;;;;;;4954089;29;1302;-70
2021/11/25 02:33:56;;;;;;;;;;;20.40;64.00;;;;;;4937279;29;1304;-70
2021/11/25 02:36:22;;;;;;;;;;;20.40;64.00;;;;;;4954788;29;1316;-69
2021/11/25 02:38:47;;;;;;;;;;;20.40;64.00;;;;;;4937471;29;1328;-70
2021/11/25 02:41:12;;;;;;;;;;;20.40;64.00;;;;;;4954284;28;1748;-69
2021/11/25 02:43:38;;;;;;;;;;;20.40;64.00;;;;;;4954411;29;1970;-70
2021/11/25 02:46:11;;;;;;;;;;;20.40;64.10;;;;;;4954404;28;1326;-69
2021/11/25 02:48:44;;;;;;;;;;;20.40;64.10;;;;;;4954429;29;1280;-70
2021/11/25 02:51:10;;;;;;;;;;;20.40;64.10;;;;;;4954525;29;1429;-69
2021/11/25 02:53:36;;;;;;;;;;;20.40;64.10;;;;;;4954439;29;1307;-70
2021/11/25 02:56:02;;;;;;;;;;;20.30;64.10;;;;;;4954436;29;1398;-69
2021/11/25 02:58:28;;;;;;;;;;;20.30;64.10;;;;;;4937049;29;1359;-70
2021/11/25 03:00:54;;;;;;;;;;;20.40;64.10;;;;;;4936841;29;1372;-70
2021/11/25 03:03:20;;;;;;;;;;;20.30;64.10;;;;;;4957340;28;1406;-70
2021/11/25 03:05:46;;;;;;;;;;;20.30;64.10;;;;;;4957806;29;1895;-70
2021/11/25 03:08:12;;;;;;;;;;;20.30;64.10;;;;;;4940784;29;1269;-70
2021/11/25 03:10:38;;;;;;;;;;;20.30;64.10;;;;;;4940598;29;1322;-70
2021/11/25 03:13:04;;;;;;;;;;;20.30;64.10;;;;;;4957485;29;1328;-70
2021/11/25 03:15:30;;;;;;;;;;;20.30;64.10;;;;;;4941220;29;1297;-70
2021/11/25 03:17:56;;;;;;;;;;;20.30;64.10;;;;;;4957640;29;1496;-70
2021/11/25 03:20:22;;;;;;;;;;;20.30;64.10;;;;;;4961452;28;1357;-70
2021/11/25 03:22:47;;;;;;;;;;;20.30;64.10;;;;;;4960156;28;1295;-70
2021/11/25 03:25:13;;;;;;;;;;;20.30;64.20;;;;;;4956773;29;1953;-70
2021/11/25 03:27:38;;;;;;;;;;;20.30;64.20;;;;;;4958193;28;1366;-70
2021/11/25 03:30:04;;;;;;;;;;;20.30;64.10;;;;;;4957509;28;1279;-70
2021/11/25 03:32:29;;;;;;;;;;;20.30;64.20;;;;;;4957394;29;1341;-70
2021/11/25 03:34:55;;;;;;;;;;;20.30;64.20;;;;;;4957378;29;1328;-70
2021/11/25 03:37:21;;;;;;;;;;;20.30;64.20;;;;;;4957478;29;1481;-69
2021/11/25 03:39:46;;;;;;;;;;;20.30;64.20;;;;;;4957530;29;1343;-70
2021/11/25 03:42:12;;;;;;;;;;;20.30;64.20;;;;;;4956794;29;1165;-69
2021/11/25 03:44:37;;;;;;;;;;;20.30;64.30;;;;;;4957244;28;1918;-70
2021/11/25 03:47:02;;;;;;;;;;;20.30;64.20;;;;;;4957270;29;1334;-70
2021/11/25 03:49:29;;;;;;;;;;;20.30;64.20;;;;;;4957125;29;1473;-70
2021/11/25 03:51:54;;;;;;;;;;;20.30;64.30;;;;;;4939624;29;1312;-69
2021/11/25 03:54:19;;;;;;;;;;;20.30;64.20;;;;;;4957081;29;1311;-70
2021/11/25 03:56:45;;;;;;;;;;;20.30;64.30;;;;;;4956961;29;1323;-70
2021/11/25 03:59:10;;;;;;;;;;;20.30;64.20;;;;;;4956927;29;1372;-70
2021/11/25 04:01:36;;;;;;;;;;;20.20;64.20;;;;;;4956640;29;1242;-70
2021/11/25 04:04:01;;;;;;;;;;;20.30;64.30;;;;;;4956817;28;1898;-70
2021/11/25 04:06:27;;;;;;;;;;;20.30;64.30;;;;;;4956977;28;1055;-70
2021/11/25 04:08:52;;;;;;;;;;;20.20;64.20;;;;;;4956618;28;1411;-70
2021/11/25 04:11:18;;;;;;;;;;;20.20;64.30;;;;;;4956594;28;1301;-70
2021/11/25 04:13:43;;;;;;;;;;;20.30;64.30;;;;;;4955599;28;1287;-70
2021/11/25 04:16:09;;;;;;;;;;;20.30;64.30;;;;;;4957049;29;1270;-70
2021/11/25 04:18:34;;;;;;;;;;;20.20;64.30;;;;;;4956537;29;1427;-70
2021/11/25 04:21:00;;;;;;;;;;;20.20;64.30;;;;;;4965490;28;1259;-70
2021/11/25 04:23:25;;;;;;;;;;;20.20;64.30;;;;;;4958236;28;1292;-70
2021/11/25 04:25:51;;;;;;;;;;;20.20;64.30;;;;;;4956425;29;1895;-70
2021/11/25 04:28:16;;;;;;;;;;;20.20;64.30;;;;;;4952374;28;1385;-70
2021/11/25 04:35:51;;;;;;;;;;;20.20;64.30;;;;;;4942235;29;1281;-71
2021/11/25 04:38:17;;;;;;;;;;;20.20;64.40;;;;;;4955320;23;2039;-68
2021/11/25 04:41:02;;;;;;;;;;;20.20;64.40;;;;;;4968355;28;2284;-66
2021/11/25 04:43:27;;;;;;;;;;;20.20;64.40;;;;;;4975651;28;1245;-65
2021/11/25 04:45:53;;;;;;;;;;;20.20;64.40;;;;;;4974270;28;1956;-66
2021/11/25 04:48:19;;;;;;;;;;;20.20;64.40;;;;;;4971974;28;1725;-66
2021/11/25 04:50:44;;;;;;;;;;;20.20;64.40;;;;;;4956105;29;1855;-66
2021/11/25 04:53:11;;;;;;;;;;;20.20;64.40;;;;;;4955842;29;1614;-66
2021/11/25 04:55:37;;;;;;;;;;;20.20;64.40;;;;;;4956106;29;1332;-68
2021/11/25 04:58:02;;;;;;;;;;;20.20;64.40;;;;;;4956007;28;1706;-67
2021/11/25 05:00:28;;;;;;;;;;;20.20;64.40;;;;;;4954809;29;1657;-68
2021/11/25 05:02:53;;;;;;;;;;;20.20;64.40;;;;;;4955705;29;1378;-68
2021/11/25 05:05:19;;;;;;;;;;;20.20;64.40;;;;;;4954728;29;1895;-67
2021/11/25 05:07:44;;;;;;;;;;;20.20;64.40;;;;;;4938643;29;1645;-67
2021/11/25 05:10:10;;;;;;;;;;;20.20;64.40;;;;;;4955764;28;1742;-67
2021/11/25 05:12:37;;;;;;;;;;;20.20;64.40;;;;;;4954430;29;1258;-68
2021/11/25 05:15:10;;;;;;;;;;;20.20;64.40;;;;;;4954591;29;1409;-68
2021/11/25 05:17:35;;;;;;;;;;;20.20;64.30;;;;;;4954737;29;1730;-67
2021/11/25 05:20:01;;;;;;;;;;;20.20;64.20;;;;;;4956638;28;1484;-67
2021/11/25 05:22:26;;;;;;;;;;;20.30;64.20;;;;;;4964560;28;1439;-68
2021/11/25 05:24:52;;;;;;;;;;;20.30;64.10;;;;;;4954249;28;1895;-67
2021/11/25 05:27:17;;;;;;;;;;;20.30;63.90;;;;;;4955865;28;1482;-67
2021/11/25 05:29:43;;;;;;;;;;;20.40;63.90;;;;;;4955244;29;1389;-68
2021/11/25 05:32:10;;;;;;;;;;;20.40;63.80;;;;;;4955209;29;1702;-67
2021/11/25 05:34:35;;;;;;;;;;;20.40;63.70;;;;;;4955391;29;1394;-67
2021/11/25 05:37:01;;;;;;;;;;;20.40;63.60;;;;;;4955498;29;1354;-68
2021/11/25 05:39:26;;;;;;;;;;;20.50;63.50;;;;;;4955166;29;1524;-67
2021/11/25 05:41:52;;;;;;;;;;;20.50;63.50;;;;;;4954958;29;1517;-66
2021/11/25 05:44:17;;;;;;;;;;;20.50;63.30;;;;;;4955050;29;1906;-67
2021/11/25 05:46:43;;;;;;;;;;;20.50;63.20;;;;;;4955487;28;1371;-67
2021/11/25 05:49:08;;;;;;;;;;;20.50;63.20;;;;;;4955176;29;1345;-67
2021/11/25 05:51:34;;;;;;;;;;;20.50;63.10;;;;;;4954685;29;1676;-68
2021/11/25 05:54:00;;;;;;;;;;;20.60;63.10;;;;;;4955139;29;1358;-68
2021/11/25 05:56:25;;;;;;;;;;;20.60;63.10;;;;;;4955287;29;1599;-68
2021/11/25 05:58:51;;;;;;;;;;;20.60;63.00;;;;;;4954957;29;1378;-68
2021/11/25 06:01:16;;;;;;;;;;;20.60;62.90;;;;;;4954802;28;1678;-66
2021/11/25 06:03:42;;;;;;;;;;;20.60;62.90;;;;;;4949107;28;2121;-70
2021/11/25 06:06:07;;;;;;;;;;;20.60;62.90;;;;;;4952146;28;2440;-67
2021/11/25 06:08:33;;;;;;;;;;;20.60;62.80;;;;;;4954621;28;1407;-68
2021/11/25 06:11:02;;;;;;;;;;;20.60;62.80;;;;;;4944551;29;1595;-68
2021/11/25 06:13:28;;;;;;;;;;;20.60;62.70;;;;;;4954754;29;1803;-70
2021/11/25 06:15:53;;;;;;;;;;;20.60;62.80;;;;;;4937813;29;1606;-70
2021/11/25 06:18:19;;;;;;;;;;;20.60;62.70;;;;;;4937251;28;1695;-67
2021/11/25 06:20:44;;;;;;;;;;;20.60;62.70;;;;;;4954915;29;1691;-69
2021/11/25 06:23:10;;;;;;;;;;;20.60;62.70;;;;;;4954758;29;1641;-69
2021/11/25 06:25:35;;;;;;;;;;;20.70;62.70;;;;;;4937539;29;1952;-68
2021/11/25 06:28:01;;;;;;;;;;;20.70;62.70;;;;;;4954660;28;1448;-68
2021/11/25 06:30:26;;;;;;;;;;;20.60;62.60;;;;;;4937437;29;1633;-69
2021/11/25 06:32:52;;;;;;;;;;;20.60;62.60;;;;;;4954428;29;1200;-68
2021/11/25 06:35:18;;;;;;;;;;;20.70;62.70;;;;;;4954464;29;1610;-66
2021/11/25 06:37:45;;;;;;;;;;;20.60;62.50;;;;;;4956792;28;1655;-68
2021/11/25 06:40:11;;;;;;;;;;;20.70;62.60;;;;;;4958337;28;1409;-67
2021/11/25 06:42:36;;;;;;;;;;;20.60;62.50;;;;;;4957811;29;1509;-68
2021/11/25 06:45:02;;;;;;;;;;;20.70;62.60;;;;;;4941007;29;1911;-69
2021/11/25 06:47:28;;;;;;;;;;;20.70;62.50;;;;;;4958375;29;1334;-68
2021/11/25 06:49:53;;;;;;;;;;;20.70;62.50;;;;;;4940904;29;1363;-65
2021/11/25 06:52:19;;;;;;;;;;;20.70;62.50;;;;;;4958042;29;1628;-66
2021/11/25 06:54:44;;;;;;;;;;;20.70;62.50;;;;;;4940614;29;1255;-66
2021/11/25 06:57:10;;;;;;;;;;;20.70;62.50;;;;;;4958130;29;1364;-66
2021/11/25 06:59:36;;;;;;;;;;;20.70;62.50;;;;;;4958091;28;1420;-66
2021/11/25 07:02:04;;;;;;;;;;;20.70;62.40;;;;;;4957829;28;1576;-66
2021/11/25 07:04:29;;;;;;;;;;;20.70;62.40;;;;;;4957817;29;1902;-66
2021/11/25 07:06:55;;;;;;;;;;;20.70;62.40;;;;;;4957925;29;1335;-65
2021/11/25 07:09:20;;;;;;;;;;;20.70;62.40;;;;;;4957824;28;1412;-66
2021/11/25 07:11:46;;;;;;;;;;;20.70;62.40;;;;;;4956456;28;1922;-66
2021/11/25 07:14:11;;;;;;;;;;;20.70;62.40;;;;;;4957885;29;1446;-66
2021/11/25 07:16:37;;;;;;;;;;;20.70;62.40;;;;;;4957822;29;1631;-66
2021/11/25 07:19:03;;;;;;;;;;;20.70;62.40;;;;;;4957620;29;1533;-66
2021/11/25 07:21:28;;;;;;;;;;;20.70;62.30;;;;;;4945717;29;1501;-65
2021/11/25 07:23:54;;;;;;;;;;;20.70;62.30;;;;;;4957608;29;1910;-66
2021/11/25 07:26:19;;;;;;;;;;;20.70;62.30;;;;;;4957670;28;1432;-66
2021/11/25 07:28:45;;;;;;;;;;;20.70;62.30;;;;;;4940447;29;1687;-66
2021/11/25 07:31:10;;;;;;;;;;;20.70;62.30;;;;;;4957375;29;1613;-66
2021/11/25 07:33:36;;;;;;;;;;;20.70;62.30;;;;;;4939935;29;3150;-66
2021/11/25 07:36:01;;;;;;;;;;;20.70;62.20;;;;;;4957552;29;1673;-66
2021/11/25 07:38:27;;;;;;;;;;;20.70;62.20;;;;;;4940286;29;1801;-66
2021/11/25 07:40:52;;;;;;;;;;;20.80;62.20;;;;;;4957103;29;1410;-66
2021/11/25 07:43:18;;;;;;;;;;;20.80;62.10;;;;;;4957361;29;1686;-66
2021/11/25 07:45:44;;;;;;;;;;;20.90;61.90;;;;;;4957253;29;1911;-66
2021/11/25 07:48:10;;;;;;;;;;;21.00;61.80;;;;;;4956174;28;1405;-66
2021/11/25 07:50:37;;;;;;;;;;;21.10;61.70;;;;;;4956956;29;1597;-66
2021/11/25 07:53:02;;;;;;;;;;;21.20;61.40;;;;;;4956803;29;1406;-66
2021/11/25 07:55:28;;;;;;;;;;;21.30;61.20;;;;;;4957166;29;1672;-66
2021/11/25 07:57:53;;;;;;;;;;;21.40;61.60;;;;;;4957248;28;1181;-66
2021/11/25 08:00:22;;;;;;;;;;;21.50;60.50;;;;;;4956899;29;1688;-66
2021/11/25 08:02:47;;;;;;;;;;;21.60;60.30;;;;;;4939479;29;1124;-65
2021/11/25 08:05:13;;;;;;;;;;;21.70;60.00;;;;;;4939775;29;1899;-65
2021/11/25 08:07:40;;;;;;;;;;;21.80;59.80;;;;;;4957198;29;1660;-65
2021/11/25 08:10:06;;;;;;;;;;;21.80;59.60;;;;;;4956714;28;1435;-66
2021/11/25 08:12:31;;;;;;;;;;;21.90;59.40;;;;;;4936413;29;1660;-66
2021/11/25 08:14:57;;;;;;;;;;;22.00;59.30;;;;;;4947389;29;1567;-66
2021/11/25 08:17:22;;;;;;;;;;;22.00;59.10;;;;;;4947295;29;1542;-65
2021/11/25 08:19:48;;;;;;;;;;;22.10;59.00;;;;;;4947238;28;1400;-66
2021/11/25 08:22:15;;;;;;;;;;;22.20;58.90;;;;;;4950106;28;1469;-66
2021/11/25 08:24:41;;;;;;;;;;;22.20;58.70;;;;;;4950159;29;1887;-66
2021/11/25 08:27:06;;;;;;;;;;;22.20;58.60;;;;;;4957283;28;1468;-65
2021/11/25 08:29:32;;;;;;;;;;;22.30;58.50;;;;;;4949973;28;1564;-65
2021/11/25 08:31:57;;;;;;;;;;;22.30;58.40;;;;;;4946650;29;1452;-66
2021/11/25 08:34:23;;;;;;;;;;;22.40;58.40;;;;;;4947243;28;1440;-66
2021/11/25 08:36:49;;;;;;;;;;;22.40;58.30;;;;;;4947066;29;1242;-65
2021/11/25 08:39:14;;;;;;;;;;;22.40;58.20;;;;;;4946735;29;1382;-66
2021/11/25 08:41:40;;;;;;;;;;;22.50;58.20;;;;;;4946499;29;1321;-66
2021/11/25 08:44:05;;;;;;;;;;;22.50;58.10;;;;;;4945873;29;1910;-66
2021/11/25 08:46:31;;;;;;;;;;;22.50;58.00;;;;;;4946847;29;1427;-66
2021/11/25 08:48:56;;;;;;;;;;;22.60;58.00;;;;;;4946652;29;1472;-66
2021/11/25 08:51:22;;;;;;;;;;;22.60;58.00;;;;;;4947930;29;1265;-66
2021/11/25 08:53:48;;;;;;;;;;;22.60;57.90;;;;;;4945576;29;1465;-66
2021/11/25 08:56:13;;;;;;;;;;;22.60;57.90;;;;;;4944692;29;1171;-66
2021/11/25 08:58:39;;;;;;;;;;;22.70;57.90;;;;;;4946148;29;1317;-66
2021/11/25 09:01:05;;;;;;;;;;;22.70;57.80;;;;;;4944569;29;1337;-66
2021/11/25 09:03:30;;;;;;;;;;;22.70;57.70;;;;;;4950784;28;1214;-66
2021/11/25 09:05:59;;;;;;;;;;;22.70;57.70;;;;;;4955238;29;1894;-66
2021/11/25 09:08:24;;;;;;;;;;;22.70;57.70;;;;;;4938598;28;1671;-67
2021/11/25 09:10:50;;;;;;;;;;;22.70;57.70;;;;;;4955494;29;1606;-66
2021/11/25 09:13:16;;;;;;;;;;;22.80;57.70;;;;;;4955615;28;1487;-66
2021/11/25 09:15:42;;;;;;;;;;;22.80;57.70;;;;;;4955439;29;1342;-67
2021/11/25 09:18:08;;;;;;;;;;;22.80;57.70;;;;;;4955879;28;1656;-67
2021/11/25 09:20:34;;;;;;;;;;;22.80;57.70;;;;;;4955639;29;1626;-66
2021/11/25 09:23:04;;;;;;;;;;;22.80;57.70;;;;;;4952020;29;1339;-67
2021/11/25 09:25:29;;;;;;;;;;;22.80;57.70;;;;;;4935798;29;1903;-66
2021/11/25 09:27:55;;;;;;;;;;;22.80;57.70;;;;;;4938271;29;1469;-66
2021/11/25 09:30:20;;;;;;;;;;;22.90;57.70;;;;;;4955302;28;1625;-67
2021/11/25 09:32:47;;;;;;;;;;;22.90;57.70;;;;;;4955149;29;1366;-67
2021/11/25 09:35:13;;;;;;;;;;;22.90;57.70;;;;;;4955456;29;1356;-66
2021/11/25 09:37:38;;;;;;;;;;;22.90;57.80;;;;;;4955306;29;1311;-66
2021/11/25 09:40:09;;;;;;;;;;;22.90;57.80;;;;;;4954939;28;1309;-66
2021/11/25 09:42:34;;;;;;;;;;;22.90;57.80;;;;;;4954558;29;1444;-67
2021/11/25 09:45:02;;;;;;;;;;;22.90;57.80;;;;;;4955020;29;1960;-66
2021/11/25 09:47:28;;;;;;;;;;;22.90;57.90;;;;;;4955101;29;1734;-67
2021/11/25 09:49:53;;;;;;;;;;;22.80;57.90;;;;;;4938028;29;1536;-66
2021/11/25 09:52:19;;;;;;;;;;;22.80;57.80;;;;;;4937749;29;1667;-64
2021/11/25 09:54:44;;;;;;;;;;;22.90;57.60;;;;;;4955143;29;1585;-64
2021/11/25 09:57:10;;;;;;;;;;;22.80;56.80;;;;;;4954909;29;1601;-65
2021/11/25 09:59:35;;;;;;;;;;;22.70;55.20;;;;;;4954922;28;1692;-64
2021/11/25 10:02:01;;;;;;;;;;;22.60;54.50;;;;;;4954721;29;1417;-64
2021/11/25 10:04:27;;;;;;;;;;;22.60;54.10;;;;;;4954820;29;1910;-66
2021/11/25 10:06:53;;;;;;;;;;;22.50;52.50;;;;;;4955030;29;1653;-67
2021/11/25 10:09:29;;;;;;;;;;;22.50;52.70;;;;;;4954757;28;1392;-67
2021/11/25 10:11:54;;;;;;;;;;;22.50;52.90;;;;;;4953467;28;1692;-67
2021/11/25 10:14:20;;;;;;;;;;;22.50;53.50;;;;;;4955000;29;1560;-67
2021/11/25 10:16:47;;;;;;;;;;;22.50;53.80;;;;;;4937650;29;1642;-67
2021/11/25 10:19:27;;;;;;;;;;;22.50;53.90;;;;;;4954841;28;1381;-66
2021/11/25 10:21:53;;;;;;;;;;;22.50;54.20;;;;;;4938159;29;1726;-66
2021/11/25 10:24:37;;;;;;;;;;;22.50;54.50;;;;;;4954495;29;1956;-66
2021/11/25 10:27:18;;;;;;;;;;;22.50;54.60;;;;;;4955100;28;1398;-66
2021/11/25 10:29:44;;;;;;;;;;;22.50;54.80;;;;;;4954618;29;1716;-67
2021/11/25 10:32:13;;;;;;;;;;;22.40;55.00;;;;;;4954504;29;1284;-67
2021/11/25 10:34:41;;;;;;;;;;;22.40;55.20;;;;;;4954560;29;1602;-67
2021/11/25 10:37:18;;;;;;;;;;;22.40;55.40;;;;;;4954663;29;1651;-66
2021/11/25 10:42:19;;;;;;;;;;;22.40;55.70;;;;;;4994526;28;2215;-71
2021/11/25 10:44:45;;;;;;;;;;;22.40;55.90;;;;;;4988475;28;1902;-70
2021/11/25 10:47:11;;;;;;;;;;;22.40;56.00;;;;;;4988302;28;1669;-70
2021/11/25 10:49:43;;;;;;;;;;;22.30;56.10;;;;;;4973433;28;1429;-70
2021/11/25 10:52:09;;;;;;;;;;;22.30;56.30;;;;;;4972533;28;1665;-70
2021/11/25 10:54:39;;;;;;;;;;;22.30;56.40;;;;;;4985032;28;1370;-70
2021/11/25 10:57:06;;;;;;;;;;;22.30;56.40;;;;;;4986714;28;1341;-70
2021/11/25 10:59:39;;;;;;;;;;;22.30;56.60;;;;;;4973347;28;1484;-71
2021/11/25 11:02:16;;;;;;;;;;;22.20;56.60;;;;;;4986460;28;1711;-72
2021/11/25 11:04:45;;;;;;;;;;;22.20;56.80;;;;;;4984945;28;1919;-71
2021/11/25 11:07:23;;;;;;;;;;;22.20;56.90;;;;;;4985282;28;1278;-70
2021/11/25 11:09:49;;;;;;;;;;;22.20;57.00;;;;;;5001267;28;1252;-71
2021/11/25 11:12:15;;;;;;;;;;;22.20;57.10;;;;;;4978466;28;1442;-70
2021/11/25 11:14:49;;;;;;;;;;;22.10;57.10;;;;;;4980263;28;816;-71
2021/11/25 11:17:21;;;;;;;;;;;22.10;57.20;;;;;;4961069;28;1095;-71
2021/11/25 11:20:05;;;;;;;;;;;22.10;57.30;;;;;;5000371;28;1498;-71
2021/11/25 11:22:30;;;;;;;;;;;22.10;57.40;;;;;;4963324;28;1510;-71
2021/11/25 11:24:56;;;;;;;;;;;22.10;57.50;;;;;;4995504;28;1950;-71
2021/11/25 11:27:21;;;;;;;;;;;22.00;57.50;;;;;;4994843;28;1708;-71
2021/11/25 11:29:47;;;;;;;;;;;22.00;57.60;;;;;;4978617;28;1687;-71
2021/11/25 11:32:12;;;;;;;;;;;22.00;57.60;;;;;;4975820;28;860;-71
2021/11/25 11:34:38;;;;;;;;;;;22.00;57.70;;;;;;4988492;28;1690;-71
2021/11/25 11:37:03;;;;;;;;;;;22.00;57.70;;;;;;4988735;28;1368;-71
2021/11/25 11:39:29;;;;;;;;;;;22.00;57.80;;;;;;4973645;28;1347;-71
2021/11/25 11:42:00;;;;;;;;;;;22.00;57.90;;;;;;5000909;28;1432;-71
2021/11/25 11:44:25;;;;;;;;;;;22.00;57.90;;;;;;4990435;28;1961;-71
2021/11/25 11:46:52;;;;;;;;;;;21.90;58.00;;;;;;4967506;28;849;-71
2021/11/25 11:49:21;;;;;;;;;;;21.90;58.00;;;;;;5003756;28;1488;-71
2021/11/25 11:52:07;;;;;;;;;;;21.90;58.00;;;;;;4987306;28;1144;-69
2021/11/25 11:54:48;;;;;;;;;;;21.90;58.10;;;;;;4963346;28;1222;-71
2021/11/25 11:57:33;;;;;;;;;;;21.90;58.10;;;;;;4978632;28;1079;-71
2021/11/25 12:00:00;;;;;;;;;;;21.90;58.20;;;;;;4984527;28;1389;-71
2021/11/25 12:02:43;;;;;;;;;;;21.90;58.80;;;;;;4990997;28;1302;-71
2021/11/25 12:05:09;;;;;;;;;;;21.90;58.30;;;;;;4976070;28;1907;-71
2021/11/25 12:07:35;;;;;;;;;;;21.90;58.30;;;;;;4987915;28;1743;-71
2021/11/25 12:10:00;;;;;;;;;;;21.80;58.20;;;;;;5004030;28;1568;-71
2021/11/25 12:12:26;;;;;;;;;;;21.80;58.30;;;;;;4987339;28;1463;-71
2021/11/25 12:14:52;;;;;;;;;;;21.80;58.30;;;;;;4970154;28;1570;-71
2021/11/25 12:17:24;;;;;;;;;;;21.80;58.40;;;;;;4974604;28;1347;-71
2021/11/25 12:19:49;;;;;;;;;;;21.80;58.40;;;;;;4975466;28;1361;-71
2021/11/25 12:22:15;;;;;;;;;;;21.80;58.40;;;;;;4974068;28;1451;-71
2021/11/25 12:24:44;;;;;;;;;;;21.80;58.50;;;;;;5003134;28;1961;-71
2021/11/25 12:27:16;;;;;;;;;;;21.80;58.50;;;;;;4985037;28;1107;-71
2021/11/25 12:29:43;;;;;;;;;;;21.80;58.50;;;;;;4979222;28;1352;-71
2021/11/25 12:32:34;;;;;;;;;;;21.80;59.20;;;;;;4974209;28;998;-71
2021/11/25 12:35:15;;;;;;;;;;;21.80;58.60;;;;;;4973512;28;1343;-71
2021/11/25 12:37:51;;;;;;;;;;;21.70;58.60;;;;;;4988739;28;1288;-71
2021/11/25 12:40:17;;;;;;;;;;;21.70;58.70;;;;;;4974582;28;1304;-71
2021/11/25 12:42:43;;;;;;;;;;;21.70;58.80;;;;;;4990884;28;1628;-71
2021/11/25 12:45:21;;;;;;;;;;;21.70;58.80;;;;;;4996592;28;1902;-70
2021/11/25 12:47:47;;;;;;;;;;;21.70;58.90;;;;;;4972570;28;1351;-71
2021/11/25 12:50:16;;;;;;;;;;;21.70;58.90;;;;;;4986188;28;1429;-71
2021/11/25 12:52:41;;;;;;;;;;;21.60;58.90;;;;;;4988446;28;1418;-71
2021/11/25 12:55:09;;;;;;;;;;;21.60;58.90;;;;;;4973375;28;1201;-71
2021/11/25 12:57:53;;;;;;;;;;;21.70;59.00;;;;;;4986888;28;1190;-71
2021/11/25 13:00:22;;;;;;;;;;;21.70;58.90;;;;;;4974667;28;1628;-72
2021/11/25 13:02:48;;;;;;;;;;;21.70;58.90;;;;;;4988816;28;1098;-71
2021/11/25 13:05:13;;;;;;;;;;;21.80;58.80;;;;;;4989027;28;1894;-71
2021/11/25 13:07:46;;;;;;;;;;;21.80;58.70;;;;;;4986879;28;1661;-71
2021/11/25 13:10:20;;;;;;;;;;;21.90;58.60;;;;;;4970461;28;1399;-71
2021/11/25 13:12:45;;;;;;;;;;;21.90;58.50;;;;;;4972388;28;1991;-72
2021/11/25 13:15:11;;;;;;;;;;;21.90;58.40;;;;;;4986099;28;1466;-72
2021/11/25 13:17:37;;;;;;;;;;;22.00;58.40;;;;;;4971668;28;1386;-72
2021/11/25 13:20:02;;;;;;;;;;;22.00;58.30;;;;;;4986077;28;1310;-72
2021/11/25 13:22:28;;;;;;;;;;;22.00;58.30;;;;;;4973515;28;1659;-71
2021/11/25 13:24:54;;;;;;;;;;;22.00;58.30;;;;;;4979390;28;1898;-71
2021/11/25 13:27:22;;;;;;;;;;;22.00;58.20;;;;;;4968551;28;1567;-71
2021/11/25 13:29:58;;;;;;;;;;;22.00;58.20;;;;;;4972326;28;1276;-71
2021/11/25 13:32:24;;;;;;;;;;;22.10;58.30;;;;;;4986693;28;1217;-71
2021/11/25 13:34:50;;;;;;;;;;;22.10;58.30;;;;;;4971198;28;1281;-71
2021/11/25 13:37:20;;;;;;;;;;;22.10;58.20;;;;;;4987756;28;1213;-72
2021/11/25 13:39:46;;;;;;;;;;;22.10;58.30;;;;;;4969203;28;1869;-72
2021/11/25 13:42:13;;;;;;;;;;;22.10;58.30;;;;;;4970875;28;1291;-72
2021/11/25 13:44:40;;;;;;;;;;;22.00;58.20;;;;;;4985264;28;1902;-71
2021/11/25 13:47:07;;;;;;;;;;;22.10;58.30;;;;;;4991380;28;1164;-72
2021/11/25 13:49:51;;;;;;;;;;;22.10;58.30;;;;;;4973298;28;1333;-71
2021/11/25 13:52:16;;;;;;;;;;;22.10;58.30;;;;;;4985757;28;1340;-71
2021/11/25 13:54:42;;;;;;;;;;;22.10;58.30;;;;;;4973164;28;1068;-71
2021/11/25 13:57:09;;;;;;;;;;;22.00;58.30;;;;;;4975526;28;1017;-71
2021/11/25 13:59:35;;;;;;;;;;;22.10;58.30;;;;;;4983818;28;1344;-72
2021/11/25 14:02:01;;;;;;;;;;;22.00;58.30;;;;;;4972456;28;1127;-71
2021/11/25 14:04:27;;;;;;;;;;;22.00;58.30;;;;;;4973316;28;1961;-70
2021/11/25 14:06:53;;;;;;;;;;;22.00;58.30;;;;;;4973513;28;1256;-70
2021/11/25 14:09:19;;;;;;;;;;;22.00;58.30;;;;;;4983901;28;1358;-69
2021/11/25 14:11:52;;;;;;;;;;;22.00;58.30;;;;;;4985982;28;1347;-70
2021/11/25 14:14:17;;;;;;;;;;;22.00;58.30;;;;;;4985350;28;1318;-68
2021/11/25 14:16:45;;;;;;;;;;;22.00;58.30;;;;;;4969485;28;1320;-69
2021/11/25 14:19:15;;;;;;;;;;;22.00;58.40;;;;;;4985030;28;1364;-71
2021/11/25 14:21:42;;;;;;;;;;;22.00;58.40;;;;;;4983961;28;1417;-71
2021/11/25 14:24:14;;;;;;;;;;;22.00;58.50;;;;;;4984704;28;1891;-70
2021/11/25 14:32:31;;;;;;;;;;;22.00;58.50;;;;;;4978613;28;1256;-72
2021/11/25 14:34:56;;;;;;;;;;;22.00;58.60;;;;;;4985029;28;1355;-72
2021/11/25 14:37:23;;;;;;;;;;;21.90;58.50;;;;;;4985166;28;1272;-72
2021/11/25 14:39:49;;;;;;;;;;;21.90;58.60;;;;;;4983895;28;1371;-72
2021/11/25 14:42:19;;;;;;;;;;;21.90;58.60;;;;;;5000055;28;1258;-71